Ana Sayfa
METAR-TAF:

METAR-TAF

Havaalanları :

Morrisville-Stowe State Airport

Morrisville, Vermont, Amerika Birleşik Devletleri

Enlem: 44-32-10N, Boylam: 072-36-58W, yükseklik: 223 m

Güncel hava durumu gözlemi

Rapor saat 08:54 UTC de 13 dakika önce yapıldı.
Sakin rüzgar
Sıcaklık -1°C
Nem 86%
Basınç 1013 hPa
Görüş mesafesi: 16.1 km
12000 ft yükseklikte parçalı bulutlu

METAR: KMVL 250854Z AUTO 00000KT 10SM SCT120 M01/M03 A2990 RMK AO2 SLP132 T10111028 56011

Saat: 04:07 (09:07 UTC)


TAF: eksik

4.000'den fazla havaalanı için hava durumu gözlemleri ve tahminleri (METAR ve TAF raporları).

Kullanılabilir istasyonlar harita üzerinde sarı ve kırmızı noktalarla gösterilir.

İstasyonun adını görmek için fareyi noktanın üzerinde gezdirin.

Sonrasında hava gözlem ve tahminlerini görmek için tıklayın.

Haritayı değiştirmek için: yaklaştırmak için siyah artı işaretli yeşil düğmeye ve uzaklaştırmak için de eksi işaretli düğmeye hızla tıklayın; bitişik haritalar için yeşil okları kullanın.


METAR-TAF: